createdAt,value
2023-03-05T00:00:16.708Z,3.82
2023-03-05T00:03:04.568Z,5.58
2023-03-05T00:05:34.548Z,7.07
2023-03-05T00:08:02.464Z,7.25
2023-03-05T00:10:30.506Z,5.98
2023-03-05T00:12:58.599Z,4.69
2023-03-05T00:15:26.553Z,4.13
2023-03-05T00:17:54.452Z,5.56
2023-03-05T00:20:22.310Z,7.05
2023-03-05T00:22:50.181Z,7.40
2023-03-05T00:25:18.194Z,5.91
2023-03-05T00:27:46.228Z,4.58
2023-03-05T00:30:14.683Z,4.02
2023-03-05T00:32:42.559Z,5.39
2023-03-05T00:35:11.015Z,6.66
2023-03-05T00:37:39.243Z,6.21
2023-03-05T00:40:08.580Z,4.74
2023-03-05T00:42:41.039Z,3.92
2023-03-05T00:45:10.994Z,5.13
2023-03-05T00:47:39.979Z,6.27
2023-03-05T00:50:09.389Z,5.83
2023-03-05T00:52:37.450Z,4.68
2023-03-05T00:55:05.858Z,3.72
2023-03-05T00:57:33.865Z,3.45
2023-03-05T01:00:01.828Z,4.92
2023-03-05T01:02:29.917Z,6.35
2023-03-05T01:04:58.945Z,6.94
2023-03-05T01:07:26.944Z,5.46
2023-03-05T01:09:55.011Z,4.20
2023-03-05T01:12:23.041Z,3.65
2023-03-05T01:14:51.024Z,4.89
2023-03-05T01:17:19.246Z,6.04
2023-03-05T01:19:47.194Z,5.17
2023-03-05T01:22:15.178Z,3.87
2023-03-05T01:24:43.141Z,3.48
2023-03-05T01:27:11.098Z,4.50
2023-03-05T01:29:39.147Z,5.36
2023-03-05T01:32:07.288Z,4.84
2023-03-05T01:34:37.920Z,3.62
2023-03-05T01:37:05.960Z,3.47
2023-03-05T01:39:34.391Z,4.88
2023-03-05T01:42:04.212Z,5.28
2023-03-05T01:44:34.088Z,4.26
2023-03-05T01:47:02.072Z,3.22
2023-03-05T01:49:40.034Z,2.94
2023-03-05T01:52:11.455Z,4.42
2023-03-05T01:54:44.229Z,5.36
2023-03-05T01:57:21.884Z,4.30
2023-03-05T01:59:56.335Z,3.27
2023-03-05T02:02:25.181Z,2.56
2023-03-05T02:05:02.779Z,3.29
2023-03-05T02:07:32.676Z,4.51
2023-03-05T02:10:00.687Z,4.03
2023-03-05T02:12:28.732Z,3.18
2023-03-05T02:14:59.659Z,2.52
2023-03-05T02:17:28.482Z,2.02
2023-03-05T02:20:04.931Z,1.64
2023-03-05T02:22:33.003Z,1.34
2023-03-05T02:25:01.558Z,1.56
2023-03-05T02:27:35.896Z,3.70
2023-03-05T02:30:04.072Z,5.71
2023-03-05T02:32:32.543Z,6.35
2023-03-05T02:35:00.666Z,5.15
2023-03-05T02:37:29.053Z,3.90
2023-03-05T02:39:57.408Z,3.06
2023-03-05T02:42:25.450Z,2.51
2023-03-05T02:44:53.421Z,2.12
2023-03-05T02:47:21.403Z,1.78
2023-03-05T02:49:49.437Z,1.59
2023-03-05T02:52:20.639Z,3.03
2023-03-05T02:54:49.013Z,5.11
2023-03-05T02:57:17.647Z,5.89
2023-03-05T02:59:47.213Z,4.79
2023-03-05T03:02:15.347Z,3.66
2023-03-05T03:04:44.372Z,2.91
2023-03-05T03:07:14.235Z,2.34
2023-03-05T03:09:46.711Z,1.91
2023-03-05T03:12:14.749Z,1.60
2023-03-05T03:14:43.109Z,1.35
2023-03-05T03:17:17.032Z,1.58
2023-03-05T03:19:46.027Z,3.47
2023-03-05T03:22:16.349Z,5.22
2023-03-05T03:24:44.721Z,6.03
2023-03-05T03:27:12.635Z,5.09
2023-03-05T03:29:40.555Z,3.93
2023-03-05T03:32:08.742Z,3.14
2023-03-05T03:34:37.047Z,2.59
2023-03-05T03:37:05.154Z,2.17
2023-03-05T03:39:33.077Z,1.82
2023-03-05T03:42:52.428Z,1.52
2023-03-05T03:45:22.375Z,1.19
2023-03-05T03:47:51.546Z,1.00
2023-03-05T03:50:22.288Z,1.17
2023-03-05T03:52:50.222Z,3.22
2023-03-05T03:55:18.852Z,5.04
2023-03-05T04:02:14.437Z,3.42
2023-03-05T04:04:42.467Z,2.44
2023-03-05T04:07:10.736Z,1.81
2023-03-05T04:09:39.105Z,1.36
2023-03-05T04:12:07.417Z,1.01
2023-03-05T04:14:35.692Z,0.76
2023-03-05T04:17:03.662Z,0.53
2023-03-05T04:19:31.562Z,0.33
2023-03-05T04:21:59.747Z,0.43
2023-03-05T04:24:27.691Z,2.15
2023-03-05T04:26:55.564Z,3.75
2023-03-05T04:29:23.553Z,3.58
2023-03-05T04:31:51.426Z,2.65
2023-03-05T04:34:19.336Z,1.87
2023-03-05T04:36:47.332Z,1.34
2023-03-05T04:39:15.784Z,0.93
2023-03-05T04:41:43.790Z,0.61
2023-03-05T04:44:11.970Z,0.37
2023-03-05T04:46:40.655Z,0.17
2023-03-05T04:49:08.648Z,-0.01
2023-03-05T04:51:36.524Z,-0.15
2023-03-05T04:54:04.763Z,-0.27
2023-03-05T04:56:32.704Z,-0.38
2023-03-05T04:59:03.044Z,-0.49
2023-03-05T05:01:33.093Z,-0.55
2023-03-05T05:04:01.532Z,-0.61
2023-03-05T05:06:29.531Z,-0.67
2023-03-05T05:08:58.628Z,-0.73
2023-03-05T05:11:26.506Z,-0.78
2023-03-05T05:13:54.373Z,-0.81
2023-03-05T05:16:22.527Z,-0.83
2023-03-05T05:18:50.818Z,-0.86
2023-03-05T05:21:20.479Z,-0.89
2023-03-05T05:23:48.943Z,-0.91
2023-03-05T05:26:16.897Z,-0.92
2023-03-05T05:28:44.841Z,-0.93
2023-03-05T05:31:16.075Z,-0.93
2023-03-05T05:33:44.395Z,-0.93
2023-03-05T05:36:19.305Z,-0.64
2023-03-05T05:38:47.290Z,1.48
2023-03-05T05:41:17.536Z,3.58
2023-03-05T05:43:45.815Z,4.70
2023-03-05T05:46:19.775Z,3.73
2023-03-05T05:48:48.096Z,2.41
2023-03-05T05:51:21.938Z,1.58
2023-03-05T05:53:50.181Z,1.03
2023-03-05T05:56:18.982Z,0.64
2023-03-05T05:58:48.794Z,0.37
2023-03-05T06:01:28.129Z,0.15
2023-03-05T06:03:57.162Z,1.28
2023-03-05T06:06:26.884Z,3.76
2023-03-05T06:08:55.941Z,4.06
2023-03-05T06:11:24.232Z,2.86
2023-03-05T06:13:52.386Z,1.95
2023-03-05T06:16:24.223Z,1.36
2023-03-05T06:18:53.039Z,0.89
2023-03-05T06:21:25.261Z,0.91
2023-03-05T06:23:53.212Z,2.85
2023-03-05T06:26:22.457Z,4.81
2023-03-05T06:28:50.597Z,5.26
2023-03-05T06:31:26.955Z,3.86
2023-03-05T06:33:57.720Z,2.65
2023-03-05T06:36:27.651Z,1.82
2023-03-05T06:38:56.579Z,1.58
2023-03-05T06:41:29.990Z,3.22
2023-03-05T06:44:02.508Z,5.14
2023-03-05T06:46:33.547Z,5.98
2023-03-05T06:49:02.448Z,4.77
2023-03-05T06:51:33.196Z,3.41
2023-03-05T06:54:04.655Z,2.41
2023-03-05T06:56:35.150Z,2.15
2023-03-05T06:59:03.157Z,3.92
2023-03-05T07:01:31.085Z,5.57
2023-03-05T07:04:00.438Z,5.68
2023-03-05T07:06:31.816Z,4.19
2023-03-05T07:09:01.447Z,2.97
2023-03-05T07:11:30.627Z,2.68
2023-03-05T07:13:59.090Z,4.64
2023-03-05T07:16:30.859Z,6.11
2023-03-05T07:19:00.630Z,5.90
2023-03-05T07:21:30.550Z,4.43
2023-03-05T07:24:01.502Z,3.26
2023-03-05T07:26:31.723Z,3.06
2023-03-05T07:28:59.791Z,4.82
2023-03-05T07:31:31.268Z,6.10
2023-03-05T07:34:02.064Z,4.78
2023-03-05T07:36:31.688Z,3.36
2023-03-05T07:38:59.658Z,3.03
2023-03-05T07:41:27.675Z,4.66
2023-03-05T07:43:56.390Z,5.71
2023-03-05T07:46:28.283Z,4.57
2023-03-05T07:48:57.041Z,3.30
2023-03-05T07:51:27.298Z,2.94
2023-03-05T07:53:57.753Z,4.81
2023-03-05T07:56:32.620Z,5.10
2023-03-05T07:59:03.059Z,3.78
2023-03-05T08:01:33.006Z,2.79
2023-03-05T08:04:02.315Z,2.81
2023-03-05T08:06:30.399Z,4.90
2023-03-05T08:08:59.125Z,5.51
2023-03-05T08:11:29.002Z,4.17
2023-03-05T08:14:00.508Z,3.07
2023-03-05T08:16:28.892Z,3.50
2023-03-05T08:18:57.995Z,5.37
2023-03-05T08:21:36.360Z,6.26
2023-03-05T08:24:08.225Z,4.92
2023-03-05T08:26:38.662Z,3.55
2023-03-05T08:29:10.918Z,3.23
2023-03-05T08:31:39.598Z,4.93
2023-03-05T08:34:07.640Z,6.06
2023-03-05T08:36:35.632Z,5.07
2023-03-05T08:39:04.173Z,3.79
2023-03-05T08:41:32.490Z,3.42
2023-03-05T08:44:01.540Z,5.09
2023-03-05T08:46:29.779Z,6.57
2023-03-05T08:48:57.802Z,6.51
2023-03-05T08:51:27.439Z,5.17
2023-03-05T08:53:58.605Z,3.97
2023-03-05T08:56:28.647Z,3.31
2023-03-05T08:58:56.826Z,4.51
2023-03-05T09:01:25.237Z,6.32
2023-03-05T09:03:54.185Z,6.04
2023-03-05T09:06:22.329Z,4.79
2023-03-05T09:08:50.521Z,3.82
2023-03-05T09:11:19.148Z,3.75
2023-03-05T09:13:47.178Z,5.46
2023-03-05T09:16:17.849Z,6.59
2023-03-05T09:18:46.249Z,5.45
2023-03-05T09:21:19.038Z,4.19
2023-03-05T09:23:47.558Z,3.77
2023-03-05T09:26:19.498Z,5.40
2023-03-05T09:28:49.626Z,6.16
2023-03-05T09:31:18.214Z,4.92
2023-03-05T09:33:48.706Z,3.80
2023-03-05T09:36:20.437Z,3.72
2023-03-05T09:38:49.358Z,5.42
2023-03-05T09:41:37.939Z,6.79
2023-03-05T09:44:49.088Z,6.18
2023-03-05T09:50:35.316Z,4.17
2023-03-05T09:53:12.449Z,5.96
2023-03-05T09:55:45.012Z,6.83
2023-03-05T09:58:18.428Z,5.30
2023-03-05T10:00:54.941Z,4.06
2023-03-05T10:04:15.348Z,4.23
2023-03-05T10:07:08.979Z,6.26
2023-03-05T10:09:57.443Z,7.04
2023-03-05T10:12:34.553Z,5.37
2023-03-05T10:15:03.307Z,4.23
2023-03-05T10:17:49.876Z,4.74
2023-03-05T10:20:50.468Z,6.35
2023-03-05T10:23:46.577Z,6.89
2023-03-05T10:26:36.594Z,5.20
2023-03-05T10:29:16.948Z,4.85
2023-03-05T10:32:02.879Z,6.37
2023-03-05T10:34:47.260Z,6.87
2023-03-05T10:38:00.944Z,5.49
2023-03-05T10:40:35.262Z,4.83
2023-03-05T10:43:27.799Z,6.01
2023-03-05T10:45:58.462Z,6.98
2023-03-05T10:48:41.658Z,5.57
2023-03-05T10:51:19.165Z,4.77
2023-03-05T10:53:58.176Z,5.68
2023-03-05T10:56:29.621Z,6.87
2023-03-05T10:58:57.781Z,6.67
2023-03-05T11:01:32.058Z,5.19
2023-03-05T11:04:03.783Z,5.96
2023-03-05T11:06:43.681Z,6.83
2023-03-05T11:09:17.644Z,6.68
2023-03-05T11:12:12.838Z,5.41
2023-03-05T11:14:42.776Z,4.53
2023-03-05T11:17:38.320Z,5.68
2023-03-05T11:21:09.039Z,6.63
2023-03-05T11:24:43.958Z,6.02
2023-03-05T11:28:36.119Z,3.84
2023-03-05T11:32:24.656Z,5.16
2023-03-05T11:36:22.150Z,5.60
2023-03-05T11:39:51.344Z,3.65
2023-03-05T11:43:40.925Z,4.87
2023-03-05T11:47:53.989Z,5.69
2023-03-05T11:50:31.550Z,3.80
2023-03-05T11:53:07.790Z,4.45
2023-03-05T11:55:50.168Z,5.62
2023-03-05T11:58:29.406Z,4.52
2023-03-05T12:00:57.997Z,3.36
2023-03-05T12:03:33.036Z,3.95
2023-03-05T12:06:14.922Z,5.34
2023-03-05T12:08:49.958Z,4.98
2023-03-05T12:11:27.837Z,4.04
2023-03-05T12:14:20.637Z,3.40
2023-03-05T12:17:05.514Z,5.11
2023-03-05T12:19:52.117Z,5.15
2023-03-05T12:22:34.425Z,3.98
2023-03-05T12:25:24.768Z,3.17
2023-03-05T12:27:52.818Z,3.55
2023-03-05T12:30:43.568Z,5.03
2023-03-05T12:33:57.028Z,6.24
2023-03-05T12:36:24.864Z,4.68
2023-03-05T12:38:55.262Z,3.61
2023-03-05T12:41:23.131Z,3.06
2023-03-05T12:44:06.369Z,4.56
2023-03-05T12:46:39.051Z,4.74
2023-03-05T12:49:20.253Z,3.96
2023-03-05T12:51:51.450Z,3.17
2023-03-05T12:54:25.400Z,2.78
2023-03-05T12:56:58.372Z,3.88
2023-03-05T12:59:42.588Z,5.48
2023-03-05T13:02:28.512Z,5.14
2023-03-05T13:05:00.547Z,4.37
2023-03-05T13:07:28.658Z,4.06
2023-03-05T13:09:58.930Z,4.01
2023-03-05T13:12:30.807Z,3.93
2023-03-05T13:15:08.862Z,3.82
2023-03-05T13:17:57.752Z,3.58
2023-03-05T13:20:34.125Z,3.40
2023-03-05T13:23:08.152Z,3.34
2023-03-05T13:25:36.200Z,3.20
2023-03-05T13:28:10.421Z,3.12
2023-03-05T13:30:38.627Z,3.08
2023-03-05T13:33:06.544Z,2.99
2023-03-05T13:35:35.151Z,2.90
2023-03-05T13:38:03.184Z,2.86
2023-03-05T13:40:33.079Z,2.76
2023-03-05T13:43:13.573Z,2.65
2023-03-05T13:45:44.108Z,2.61
2023-03-05T13:48:19.723Z,2.54
2023-03-05T13:50:57.304Z,2.41
2023-03-05T13:54:09.485Z,2.35
2023-03-05T14:00:01.434Z,2.19
2023-03-05T14:02:32.382Z,2.13
2023-03-05T14:05:01.391Z,2.08
2023-03-05T14:10:39.829Z,1.90
2023-03-05T14:13:19.374Z,1.82
2023-03-05T14:16:35.933Z,1.77
2023-03-05T14:19:09.266Z,1.74
2023-03-05T14:22:19.929Z,1.73
2023-03-05T14:24:53.280Z,1.86
2023-03-05T14:27:22.136Z,3.35
2023-03-05T14:29:50.159Z,4.52
2023-03-05T14:32:28.780Z,3.94
2023-03-05T14:34:59.610Z,3.20
2023-03-05T14:37:36.096Z,2.69
2023-03-05T14:40:41.816Z,2.32
2023-03-05T14:43:11.427Z,2.04
2023-03-05T14:45:43.622Z,1.88
2023-03-05T14:48:14.034Z,1.75
2023-03-05T14:50:45.087Z,2.82
2023-03-05T14:53:18.163Z,4.53
2023-03-05T14:55:50.580Z,3.96
2023-03-05T14:58:22.914Z,3.12
2023-03-05T15:00:51.432Z,2.63
2023-03-05T15:03:23.145Z,2.28
2023-03-05T15:05:54.370Z,2.05
2023-03-05T15:08:28.535Z,1.89
2023-03-05T15:10:57.018Z,1.76
2023-03-05T15:13:25.048Z,2.17
2023-03-05T15:15:54.893Z,4.02
2023-03-05T15:18:23.844Z,5.61
2023-03-05T15:20:53.448Z,4.83
2023-03-05T15:23:25.799Z,3.74
2023-03-05T15:25:53.892Z,3.01
2023-03-05T15:28:21.789Z,2.57
2023-03-05T15:30:49.745Z,2.24
2023-03-05T15:33:17.900Z,2.02
2023-03-05T15:35:46.276Z,1.86
2023-03-05T15:38:16.569Z,1.75
2023-03-05T15:40:45.196Z,1.93
2023-03-05T15:43:14.999Z,3.66
2023-03-05T15:45:43.024Z,4.88
2023-03-05T15:48:40.594Z,4.11
2023-03-05T15:51:09.606Z,3.26
2023-03-05T15:53:39.062Z,2.65
2023-03-05T15:56:07.242Z,2.27
2023-03-05T15:58:35.193Z,2.00
2023-03-05T16:01:03.338Z,1.83
2023-03-05T16:03:31.471Z,2.15
2023-03-05T16:05:59.493Z,4.12
2023-03-05T16:08:27.600Z,4.55
2023-03-05T16:10:55.626Z,3.63
2023-03-05T16:13:24.137Z,2.73
2023-03-05T16:15:54.814Z,3.10
2023-03-05T16:18:25.167Z,4.63
2023-03-05T16:20:53.816Z,5.30
2023-03-05T16:23:22.396Z,4.37
2023-03-05T16:25:50.796Z,3.30
2023-03-05T16:28:18.829Z,3.38
2023-03-05T16:30:56.330Z,4.90
2023-03-05T16:33:25.401Z,4.89
2023-03-05T16:36:27.381Z,3.99
2023-03-05T16:38:58.235Z,3.57
2023-03-05T16:41:28.071Z,5.13
2023-03-05T16:43:56.765Z,5.62
2023-03-05T16:46:28.551Z,4.10
2023-03-05T16:49:00.116Z,3.64
2023-03-05T16:51:28.040Z,4.48
2023-03-05T16:53:56.314Z,5.79
2023-03-05T16:56:29.405Z,5.78
2023-03-05T16:58:57.553Z,4.22
2023-03-05T17:01:25.933Z,3.27
2023-03-05T17:03:54.871Z,3.94
2023-03-05T17:06:25.465Z,5.30
2023-03-05T17:08:55.037Z,6.06
2023-03-05T17:11:23.456Z,4.67
2023-03-05T17:13:52.407Z,3.64
2023-03-05T17:16:20.938Z,4.71
2023-03-05T17:18:49.219Z,5.76
2023-03-05T17:21:17.493Z,6.55
2023-03-05T17:23:46.053Z,4.98
2023-03-05T17:26:18.236Z,3.98
2023-03-05T17:28:46.993Z,4.87
2023-03-05T17:31:15.221Z,5.81
2023-03-05T17:33:44.383Z,5.81
2023-03-05T17:36:18.925Z,5.11
2023-03-05T17:38:47.832Z,4.25
2023-03-05T17:41:17.858Z,5.54
2023-03-05T17:44:27.004Z,5.70
2023-03-05T17:46:55.367Z,6.38
2023-03-05T17:49:23.621Z,4.86
2023-03-05T17:51:51.860Z,4.04
2023-03-05T17:54:20.508Z,4.84
2023-03-05T17:56:58.659Z,5.61
2023-03-05T17:59:27.214Z,6.45
2023-03-05T18:01:55.969Z,5.43
2023-03-05T18:05:02.122Z,4.17
2023-03-05T18:07:31.694Z,5.26
2023-03-05T18:10:00.793Z,6.10
2023-03-05T18:12:29.451Z,5.40
2023-03-05T18:15:00.481Z,4.12
2023-03-05T18:17:28.567Z,3.60
2023-03-05T18:19:56.971Z,4.86
2023-03-05T18:22:25.150Z,5.82
2023-03-05T18:24:53.999Z,6.44
2023-03-05T18:27:22.532Z,4.97
2023-03-05T18:29:54.186Z,3.56
2023-03-05T18:32:24.539Z,3.11
2023-03-05T18:34:53.394Z,4.59
2023-03-05T18:37:21.483Z,5.58
2023-03-05T18:39:49.549Z,6.10
2023-03-05T18:42:17.437Z,5.71
2023-03-05T18:44:45.317Z,4.33
2023-03-05T18:47:13.222Z,3.29
2023-03-05T18:49:41.692Z,3.00
2023-03-05T18:52:11.802Z,4.35
2023-03-05T18:54:40.595Z,6.00
2023-03-05T18:57:08.981Z,6.20
2023-03-05T18:59:37.094Z,4.79
2023-03-05T19:02:06.432Z,3.51
2023-03-05T19:04:34.903Z,2.97
2023-03-05T19:07:14.923Z,4.19
2023-03-05T19:09:58.123Z,5.42
2023-03-05T19:15:40.558Z,6.07
2023-03-05T19:18:08.863Z,4.53
2023-03-05T19:24:02.362Z,5.68
2023-03-05T19:26:37.635Z,6.95
2023-03-05T19:29:06.995Z,7.07
2023-03-05T19:32:07.905Z,5.54
2023-03-05T19:34:47.929Z,3.85
2023-03-05T19:37:16.942Z,3.59
2023-03-05T19:39:45.139Z,5.33
2023-03-05T19:42:13.452Z,6.61
2023-03-05T19:44:41.503Z,6.58
2023-03-05T19:47:42.600Z,5.04
2023-03-05T19:50:29.716Z,3.61
2023-03-05T19:52:58.025Z,4.63
2023-03-05T19:55:26.178Z,5.88
2023-03-05T19:57:54.887Z,5.95
2023-03-05T20:00:26.421Z,4.51
2023-03-05T20:02:54.826Z,3.36
2023-03-05T20:05:32.997Z,4.22
2023-03-05T20:08:01.815Z,5.31
2023-03-05T20:10:29.856Z,6.23
2023-03-05T20:12:57.947Z,6.37
2023-03-05T20:15:29.335Z,4.86
2023-03-05T20:17:57.861Z,3.48
2023-03-05T20:20:25.938Z,3.73
2023-03-05T20:22:54.355Z,5.15
2023-03-05T20:25:25.416Z,6.17
2023-03-05T20:27:53.439Z,6.56
2023-03-05T20:30:21.542Z,5.30
2023-03-05T20:32:49.733Z,3.81
2023-03-05T20:35:19.347Z,3.35
2023-03-05T20:38:14.054Z,4.59
2023-03-05T20:40:45.017Z,6.19
2023-03-05T20:43:13.085Z,6.63
2023-03-05T20:46:00.756Z,5.30
2023-03-05T20:48:32.689Z,3.80
2023-03-05T20:51:13.302Z,2.90
2023-03-05T20:53:41.555Z,2.78
2023-03-05T20:56:09.988Z,4.44
2023-03-05T20:58:38.289Z,6.10
2023-03-05T21:01:06.892Z,6.94
2023-03-05T21:03:37.341Z,7.07
2023-03-05T21:06:07.173Z,5.64
2023-03-05T21:08:35.447Z,4.22
2023-03-05T21:11:08.527Z,3.28
2023-03-05T21:13:37.765Z,3.08
2023-03-05T21:16:11.192Z,4.74
2023-03-05T21:18:40.708Z,6.19
2023-03-05T21:21:08.831Z,6.99
2023-03-05T21:23:37.117Z,7.02
2023-03-05T21:26:08.726Z,5.50
2023-03-05T21:28:40.482Z,3.93
2023-03-05T21:31:15.391Z,3.44
2023-03-05T21:33:43.689Z,4.76
2023-03-05T21:36:11.800Z,5.74
2023-03-05T21:38:40.755Z,5.88
2023-03-05T21:41:08.800Z,4.47
2023-03-05T21:43:36.977Z,3.41
2023-03-05T21:46:05.661Z,4.56
2023-03-05T21:48:34.030Z,5.24
2023-03-05T21:52:02.361Z,4.58
2023-03-05T21:54:33.424Z,3.07
2023-03-05T21:57:01.598Z,3.72
2023-03-05T21:59:29.632Z,5.05
2023-03-05T22:01:57.925Z,6.11
2023-03-05T22:04:26.096Z,6.17
2023-03-05T22:06:54.396Z,4.74
2023-03-05T22:09:22.495Z,3.52
2023-03-05T22:11:50.588Z,2.69
2023-03-05T22:14:18.578Z,2.48
2023-03-05T22:16:46.684Z,4.04
2023-03-05T22:19:15.001Z,5.42
2023-03-05T22:22:36.658Z,6.32
2023-03-05T22:25:05.614Z,6.22
2023-03-05T22:27:33.958Z,4.78
2023-03-05T22:30:10.906Z,3.64
2023-03-05T22:33:02.030Z,3.22
2023-03-05T22:36:16.443Z,5.01
2023-03-05T22:40:04.202Z,6.08
2023-03-05T22:43:12.525Z,7.39
2023-03-05T22:46:21.168Z,7.28
2023-03-05T22:50:01.120Z,5.27
2023-03-05T22:52:29.547Z,3.98
2023-03-05T22:54:58.300Z,5.07
2023-03-05T22:57:26.493Z,6.38
2023-03-05T22:59:54.757Z,6.97
2023-03-05T23:02:23.115Z,5.53
2023-03-05T23:04:59.092Z,4.23
2023-03-05T23:07:29.851Z,3.26
2023-03-05T23:10:20.250Z,3.00
2023-03-05T23:12:51.113Z,4.97
2023-03-05T23:15:25.598Z,6.57
2023-03-05T23:18:21.469Z,7.59
2023-03-05T23:20:49.621Z,6.95
2023-03-05T23:23:18.463Z,5.28
2023-03-05T23:25:46.431Z,4.00
2023-03-05T23:28:14.487Z,3.45
2023-03-05T23:30:43.497Z,4.95
2023-03-05T23:33:17.453Z,6.26
2023-03-05T23:35:57.867Z,6.68
2023-03-05T23:42:30.668Z,3.06
2023-03-05T23:44:58.832Z,3.00
2023-03-05T23:47:26.861Z,4.62
2023-03-05T23:49:54.885Z,5.83
2023-03-05T23:52:22.781Z,6.69
2023-03-05T23:54:50.700Z,6.55
2023-03-05T23:57:19.035Z,5.11
2023-03-05T23:59:47.081Z,3.81
